Pemaquid Point Lighthouse, ME

43° 50' 13"N, 69° 30' 22"W, Elevation 40 ft.
Eastern Time

Hourly observations for the last 72 hours

Date Time Temperature (°F) Humi-
dity

(%)
Wind
(mph)
Pressure Rain (in) Sun
(W/m2)
UV ET
(in)
Air Dew 6 Hour 1 Hr 3 Hr 6 Hr Day
Alt
(in)
Sea
Level

(mb)
Max Min
14 08:00 34.2 28.7 80 WSW 5 G 10 30.50 1032.9 0.00 28 0.0 0.007
14 07:00 33.0 27.2 34.6 29.4 79 W 10 G 15 30.51 1033.2 0.00 0 0.0 0.006
14 06:00 33.3 28.1 81 W 11 G 16 30.50 1033.0 0.00 0 0.0 0.005
14 05:00 34.5 29.9 83 WSW 5 G 12 30.48 1032.3 0.00 0 0.0 0.004
14 04:00 33.3 28.4 82 W 8 G 11 30.51 1033.2 0.00 0 0.0 0.003
14 03:00 30.5 25.4 81 W 4 G 10 30.53 1033.9 0.00 0 0.0 0.002
14 02:00 30.3 25.2 81 W 8 G 12 30.55 1034.5 0.00 0 0.0 0.001
14 01:00 29.8 24.7 29.8 26.3 81 W 10 G 12 30.54 1034.1 0.00 0 0.0 0.000
14 00:00 28.1 22.4 79 WNW 7 G 10 30.52 1033.6 0.00 0 0.0 0.039
13 23:00 26.5 20.9 79 WNW 10 G 12 30.53 1033.9 0.00 0 0.0 0.038
13 22:00 26.9 20.4 76 WNW 6 G 10 30.54 1034.2 0.00 0 0.0 0.037
13 21:00 26.7 18.9 72 WNW 6 G 9 30.55 1034.5 0.00 0 0.0 0.036
13 20:00 27.6 19.8 72 W 6 G 12 30.56 1034.8 0.00 0 0.0 0.035
13 19:00 26.6 17.1 27.7 24.5 67 W 6 G 12 30.56 1034.8 0.00 0 0.0 0.034
13 18:00 24.6 14.5 65 W 5 G 7 30.56 1034.8 0.00 0 0.0 0.033
13 17:00 25.8 11.0 53 W 10 G 13 30.55 1034.5 0.00 0 0.0 0.032
13 16:00 25.7 10.1 51 WSW 4 G 8 30.53 1033.9 0.00 5 0.0 0.031
13 15:00 26.7 11.4 52 W 3 G 9 30.52 1033.5 0.00 26 0.0 0.029
13 14:00 27.6 13.5 55 WSW 5 G 9 30.52 1033.4 0.00 294 0.0 0.024
13 13:00 26.0 10.3 26.0 9.0 51 WSW 5 G 9 30.51 1033.3 0.00 348 0.7 0.020
13 12:00 24.1 9.0 52 W 4 G 8 30.51 1033.4 0.00 438 1.0 0.015
13 11:00 21.9 8.6 56 WNW 6 G 10 30.53 1033.8 0.00 385 1.0 0.010
13 10:00 19.0 7.4 60 NW 6 G 11 30.53 1034.0 0.00 381 0.7 0.007
13 09:00 14.9 6.9 70 NW 8 G 12 30.52 1033.7 0.00 32 0.0 0.006
13 08:00 10.5 3.6 73 NNW 9 G 13 30.50 1033.0 0.00 21 0.0 0.006
13 07:00 9.1 2.2 12.8 9.0 73 NNW 5 G 8 30.49 1032.5 0.00 0 0.0 0.006
13 06:00 10.1 2.9 72 NNW 7 G 13 30.46 1031.5 0.00 0 0.0 0.005
13 05:00 10.4 2.9 71 NNW 7 G 12 30.43 1030.6 0.00 0 0.0 0.004
13 04:00 11.0 2.8 69 N 7 G 11 30.42 1030.3 0.00 0 0.0 0.003
13 03:00 11.5 3.0 68 N 2 G 8 30.41 1029.9 0.00 0 0.0 0.002
13 02:00 12.1 3.2 67 N 4 G 9 30.39 1029.3 0.00 0 0.0 0.001
13 01:00 12.8 3.6 18.3 12.7 66 N 6 G 12 30.36 1028.2 0.00 0 0.0 0.000
13 00:00 13.4 3.8 65 N 4 G 10 30.34 1027.6 0.00 0 0.0 0.037
12 23:00 14.2 4.3 64 NNW 7 G 17 30.33 1027.1 0.00 0 0.0 0.036
12 22:00 15.4 4.3 61 N 8 G 19 30.30 1026.2 0.00 0 0.0 0.035
12 21:00 16.5 4.7 59 NNW 9 G 17 30.28 1025.4 0.00 0 0.0 0.034
12 20:00 17.5 4.5 56 N 9 G 15 30.26 1024.6 0.00 0 0.0 0.033
12 19:00 18.2 4.7 25.5 18.2 55 NNW 10 G 18 30.22 1023.5 0.00 0 0.0 0.032
12 18:00 19.6 4.4 51 N 6 G 17 30.17 1021.8 0.00 0 0.0 0.031
12 17:00 21.1 6.2 52 N 7 G 15 30.13 1020.5 0.00 0 0.0 0.030
12 16:00 22.7 7.7 52 N 7 G 15 30.10 1019.3 0.00 5 0.0 0.028
12 15:00 24.5 8.1 49 NNW 14 G 23 30.07 1018.2 0.00 26 0.0 0.025
12 14:00 25.2 10.5 53 NW 14 G 26 30.03 1016.8 0.00 297 0.0 0.020
12 13:00 24.7 13.9 24.8 20.2 63 NNW 10 G 18 30.00 1015.8 0.00 330 0.7 0.016
12 12:00 23.8 14.1 66 N 7 G 19 29.99 1015.6 0.00 432 0.9 0.011
12 11:00 23.0 14.3 69 N 12 G 18 29.99 1015.5 0.00 353 0.9 0.007
12 10:00 22.1 15.1 74 N 8 G 14 29.99 1015.7 0.00 257 0.6 0.005
12 09:00 21.7 15.3 76 N 5 G 10 29.97 1015.0 0.00 98 0.0 0.004
12 08:00 20.4 14.3 77 N 6 G 13 29.94 1014.0 0.00 33 0.0 0.003
12 07:00 20.3 13.9 23.3 20.3 76 N 5 G 10 29.91 1013.0 0.00 0 0.0 0.003
12 06:00 20.4 14.3 77 N 6 G 9 29.89 1012.1 0.00 0 0.0 0.002
12 05:00 20.9 15.1 78 NW 7 G 13 29.88 1011.8 0.00 0 0.0 0.001
12 04:00 21.7 16.5 80 N 8 G 15 29.86 1011.3 0.00 0 0.0 0.000
12 03:00 21.6 18.3 87 NW 10 G 20 29.87 1011.4 0.00 0 0.0 0.000
12 02:00 22.9 19.6 87 NW 9 G 15 29.86 1011.2 0.00 0 0.0 0.000
12 01:00 21.7 18.4 28.1 21.2 87 NNW 8 G 12 29.85 1011.0 0.00 0 0.0 0.000
12 00:00 21.4 17.9 86 NW 6 G 11 29.87 1011.5 0.00 0 0.0 0.028
11 23:00 21.7 18.2 86 NW 8 G 14 29.91 1012.7 0.00 0 0.0 0.028
11 22:00 23.6 20.6 88 NW 8 G 15 29.91 1012.9 0.00 0 0.0 0.028
11 21:00 25.0 22.2 89 NNW 8 G 12 29.92 1013.3 0.00 0 0.0 0.028
11 20:00 26.0 22.9 88 NNW 10 G 16 29.93 1013.7 0.00 0 0.0 0.028
11 19:00 28.1 24.7 35.5 28.0 87 NW 10 G 13 29.96 1014.6 0.00 0 0.0 0.027
11 18:00 33.3 29.0 84 W 9 G 11 29.95 1014.2 0.00 0 0.0 0.026
11 17:00 33.8 30.9 89 SSE 14 G 19 29.95 1014.2 0.00 0 0.0 0.025
11 16:00 34.0 27.6 77 SE 11 G 16 29.99 1015.5 0.00 0 0.0 0.024
11 15:00 33.2 26.5 76 SSE 10 G 14 30.00 1015.8 0.00 39 0.0 0.022
11 14:00 31.9 24.2 73 SSE 7 G 10 30.00 1016.1 0.00 114 0.0 0.019
11 13:00 31.4 23.8 31.5 16.2 73 SSE 10 G 16 30.05 1017.7 0.00 153 0.6 0.016
11 12:00 30.2 22.6 73 S 6 G 10 30.08 1018.5 0.00 253 0.8 0.013
11 11:00 27.5 21.8 79 NE 4 G 9 30.11 1019.7 0.00 220 0.8 0.010
11 10:00 29.1 20.2 69 SE 0 G 5 30.17 1021.8 0.00 320 0.7 0.007
11 09:00 24.4 19.1 80 SE 9 G 11 30.18 1022.1 0.00 51 0.0 0.006

Data generated by WxSolution Version 1.9.1.5, Build 2018.05.20.